Time;durP1;ratioP1;P1;durP2;ratioP2;P2;SDS_P1;SDS_P2;PMS_P1;PMS_P2;Temp;Humidity;BMP_temperature;BMP_pressure;BME280_temperature;BME280_humidity;BME280_pressure;Samples;Min_cycle;Max_cycle;Signal;HPM_P1;HPM_P2
2023/12/10 00:02:00;;;;;;;52.03;12.45;;;13.20;99.90;;;;;;5073904;28;20031;-61
2023/12/10 00:04:26;;;;;;;51.47;12.77;;;13.10;99.90;;;;;;5073864;28;20024;-61
2023/12/10 00:06:51;;;;;;;51.80;12.00;;;13.10;99.90;;;;;;5055626;28;20111;-61
2023/12/10 00:09:17;;;;;;;49.13;12.43;;;13.10;99.90;;;;;;5073251;28;20037;-61
2023/12/10 00:11:43;;;;;;;48.22;12.73;;;13.10;99.90;;;;;;5073273;28;20024;-61
2023/12/10 00:14:09;;;;;;;47.80;13.25;;;13.00;99.90;;;;;;5073214;28;20020;-61
2023/12/10 00:16:34;;;;;;;51.28;13.82;;;13.00;99.90;;;;;;5073651;28;20483;-61
2023/12/10 00:19:00;;;;;;;53.38;13.43;;;13.00;99.90;;;;;;5073378;28;20033;-61
2023/12/10 00:21:26;;;;;;;52.10;13.05;;;12.90;99.90;;;;;;5073243;28;20036;-61
2023/12/10 00:23:51;;;;;;;45.50;11.75;;;12.90;99.90;;;;;;5073149;28;20025;-61
2023/12/10 00:26:17;;;;;;;54.42;12.43;;;13.00;99.90;;;;;;5072784;28;20363;-60
2023/12/10 00:28:43;;;;;;;45.55;11.65;;;13.00;99.90;;;;;;5073420;28;20039;-61
2023/12/10 00:31:09;;;;;;;45.90;12.05;;;12.90;99.90;;;;;;5073158;28;20028;-61
2023/12/10 00:33:35;;;;;;;48.20;12.85;;;12.90;99.90;;;;;;5073034;28;20398;-61
2023/12/10 00:36:01;;;;;;;47.95;12.77;;;12.90;99.90;;;;;;5073115;28;20032;-61
2023/12/10 00:38:27;;;;;;;46.58;12.10;;;12.80;99.90;;;;;;5072888;28;20421;-60
2023/12/10 00:40:52;;;;;;;51.08;12.55;;;12.80;99.90;;;;;;5072529;28;20020;-61
2023/12/10 00:43:18;;;;;;;48.15;11.10;;;12.80;99.90;;;;;;5072754;28;20048;-61
2023/12/10 00:45:44;;;;;;;44.50;12.07;;;12.70;99.90;;;;;;5072963;28;20025;-61
2023/12/10 00:48:12;;;;;;;49.97;12.43;;;12.70;99.90;;;;;;5073106;28;20462;-61
2023/12/10 00:50:38;;;;;;;46.00;11.77;;;12.70;99.90;;;;;;5071497;28;20029;-61
2023/12/10 00:53:04;;;;;;;43.65;10.52;;;12.80;99.90;;;;;;5072701;28;20021;-61
2023/12/10 00:55:29;;;;;;;44.28;12.07;;;12.80;99.90;;;;;;5072454;28;20032;-61
2023/12/10 00:57:55;;;;;;;42.65;11.85;;;13.00;99.90;;;;;;5072042;28;20021;-61
2023/12/10 01:00:22;;;;;;;43.08;12.85;;;12.90;99.90;;;;;;5072376;28;20044;-61
2023/12/10 01:02:49;;;;;;;42.15;11.95;;;12.80;99.90;;;;;;5072618;28;20071;-61
2023/12/10 01:05:15;;;;;;;40.63;11.27;;;12.70;99.90;;;;;;5072367;28;20027;-61
2023/12/10 01:07:40;;;;;;;42.05;12.00;;;12.70;99.90;;;;;;5072461;28;20052;-61
2023/12/10 01:10:07;;;;;;;39.25;10.60;;;12.70;99.90;;;;;;5072040;28;20064;-61
2023/12/10 01:12:36;;;;;;;38.25;10.98;;;12.60;99.90;;;;;;5072274;28;20028;-60
2023/12/10 01:15:05;;;;;;;37.00;10.18;;;12.50;99.90;;;;;;5072407;28;20027;-61
2023/12/10 01:17:31;;;;;;;42.08;10.85;;;12.30;99.90;;;;;;5072421;28;20024;-61
2023/12/10 01:19:59;;;;;;;38.50;10.70;;;12.20;99.90;;;;;;5072223;28;20021;-61
2023/12/10 01:22:25;;;;;;;42.03;11.35;;;12.10;99.90;;;;;;5072392;28;20426;-61
2023/12/10 01:24:52;;;;;;;42.28;11.70;;;12.00;99.90;;;;;;5072311;28;20020;-61
2023/12/10 01:27:18;;;;;;;44.28;11.40;;;11.90;99.90;;;;;;5072195;28;20033;-61
2023/12/10 01:29:44;;;;;;;47.33;11.55;;;11.80;99.90;;;;;;5072284;28;20032;-61
2023/12/10 01:32:13;;;;;;;43.90;11.38;;;11.60;99.90;;;;;;5072095;28;20532;-61
2023/12/10 01:34:41;;;;;;;48.33;13.57;;;11.50;99.90;;;;;;5072082;28;20067;-61
2023/12/10 01:37:07;;;;;;;46.65;15.27;;;11.40;99.90;;;;;;5072309;28;20033;-61
2023/12/10 01:39:33;;;;;;;48.22;16.17;;;11.40;99.90;;;;;;5072140;28;20032;-61
2023/12/10 01:41:58;;;;;;;62.75;17.95;;;11.30;99.90;;;;;;5071962;28;20483;-62
2023/12/10 01:44:24;;;;;;;64.25;19.35;;;11.30;99.90;;;;;;5072536;28;20146;-61
2023/12/10 01:46:50;;;;;;;62.75;19.90;;;11.20;99.90;;;;;;5072065;28;20059;-61
2023/12/10 01:49:18;;;;;;;58.97;19.08;;;11.20;99.90;;;;;;5071943;28;20398;-62
2023/12/10 01:51:45;;;;;;;55.38;15.63;;;11.20;99.90;;;;;;5070440;28;20384;-61
2023/12/10 01:54:20;;;;;;;54.08;13.68;;;11.10;99.90;;;;;;5071539;28;20470;-61
2023/12/10 01:56:47;;;;;;;40.67;11.00;;;11.10;99.90;;;;;;5072212;28;20510;-61
2023/12/10 01:59:13;;;;;;;48.78;12.05;;;11.10;99.90;;;;;;5071665;28;20051;-61
2023/12/10 02:01:38;;;;;;;46.80;11.23;;;11.00;99.90;;;;;;5071661;28;20036;-61
2023/12/10 02:04:05;;;;;;;45.03;10.88;;;11.00;99.90;;;;;;5071794;28;20031;-61
2023/12/10 02:06:32;;;;;;;46.42;10.77;;;11.00;99.90;;;;;;5071469;28;20075;-61
2023/12/10 02:08:58;;;;;;;40.28;10.38;;;10.90;99.90;;;;;;5071681;28;20071;-61
2023/12/10 02:11:24;;;;;;;38.58;10.05;;;10.90;99.90;;;;;;5074998;28;20028;-61
2023/12/10 02:13:51;;;;;;;46.08;11.48;;;10.90;99.90;;;;;;5075721;28;20386;-61
2023/12/10 02:16:17;;;;;;;42.35;11.07;;;10.80;99.90;;;;;;5075654;28;20032;-62
2023/12/10 02:18:43;;;;;;;43.22;10.60;;;10.80;99.90;;;;;;5075715;28;20059;-62
2023/12/10 02:21:09;;;;;;;47.95;10.63;;;10.80;99.90;;;;;;5075174;28;20094;-61
2023/12/10 02:23:35;;;;;;;46.55;11.90;;;10.70;99.90;;;;;;5075648;28;20055;-62
2023/12/10 02:26:01;;;;;;;41.97;10.15;;;10.70;99.90;;;;;;5075400;28;20035;-61
2023/12/10 02:28:27;;;;;;;46.03;11.40;;;10.70;99.90;;;;;;5075422;28;20044;-61
2023/12/10 02:30:53;;;;;;;40.72;11.52;;;10.70;99.90;;;;;;5075343;28;20038;-61
2023/12/10 02:33:18;;;;;;;41.40;10.27;;;10.70;99.90;;;;;;5075282;28;20012;-61
2023/12/10 02:35:44;;;;;;;44.55;12.07;;;10.80;99.90;;;;;;5075484;28;20036;-62
2023/12/10 02:38:10;;;;;;;46.00;11.52;;;11.00;99.90;;;;;;5075109;28;20486;-61
2023/12/10 02:40:35;;;;;;;46.50;11.18;;;11.20;99.90;;;;;;5075310;28;20482;-62
2023/12/10 02:43:01;;;;;;;44.13;10.25;;;11.30;99.90;;;;;;5075556;28;20548;-61
2023/12/10 02:45:27;;;;;;;43.45;11.00;;;11.30;99.90;;;;;;5075204;28;20035;-62
2023/12/10 02:47:53;;;;;;;41.30;10.95;;;11.40;99.90;;;;;;5075043;28;20024;-61
2023/12/10 02:50:18;;;;;;;40.55;10.57;;;11.50;99.90;;;;;;5074533;28;20068;-61
2023/12/10 02:52:44;;;;;;;46.25;11.05;;;11.60;99.90;;;;;;5074905;28;20486;-62
2023/12/10 02:55:10;;;;;;;41.15;10.35;;;11.60;99.90;;;;;;5074844;28;20039;-61
2023/12/10 02:57:36;;;;;;;43.30;10.45;;;11.60;99.90;;;;;;5074907;28;20100;-61
2023/12/10 03:00:03;;;;;;;39.75;10.10;;;11.60;99.90;;;;;;5074694;28;20074;-61
2023/12/10 03:02:28;;;;;;;45.55;10.80;;;11.50;99.90;;;;;;5075059;28;20024;-61
2023/12/10 03:04:54;;;;;;;45.72;10.95;;;11.40;99.90;;;;;;5074570;28;20025;-61
2023/12/10 03:07:20;;;;;;;41.35;10.23;;;11.30;99.90;;;;;;5075246;28;20058;-61
2023/12/10 03:09:46;;;;;;;44.00;10.38;;;11.10;99.90;;;;;;5074746;28;20043;-61
2023/12/10 03:12:11;;;;;;;42.08;10.60;;;11.00;99.90;;;;;;5074802;28;20020;-61
2023/12/10 03:14:37;;;;;;;43.75;10.55;;;10.90;99.90;;;;;;5075166;28;20052;-61
2023/12/10 03:17:03;;;;;;;42.38;10.40;;;10.90;99.90;;;;;;5074666;28;20025;-61
2023/12/10 03:19:29;;;;;;;44.17;10.05;;;10.90;99.90;;;;;;5074333;28;20063;-61
2023/12/10 03:21:54;;;;;;;47.85;10.25;;;10.80;99.90;;;;;;5073953;28;20021;-61
2023/12/10 03:24:20;;;;;;;46.33;10.02;;;10.80;99.90;;;;;;5074960;28;20028;-61
2023/12/10 03:26:46;;;;;;;43.78;11.05;;;10.80;99.90;;;;;;5074319;28;20040;-61
2023/12/10 03:29:11;;;;;;;46.35;10.90;;;10.80;99.90;;;;;;5074256;28;20040;-61
2023/12/10 03:31:37;;;;;;;47.95;10.45;;;10.80;99.90;;;;;;5074637;28;20017;-61
2023/12/10 03:34:03;;;;;;;44.05;11.10;;;10.70;99.90;;;;;;5073481;28;20028;-61
2023/12/10 03:36:29;;;;;;;42.85;9.82;;;10.60;99.90;;;;;;5074710;28;20505;-61
2023/12/10 03:38:54;;;;;;;45.42;10.95;;;10.60;99.90;;;;;;5073161;28;20028;-61
2023/12/10 03:41:20;;;;;;;41.92;10.15;;;10.50;99.90;;;;;;5074154;28;20020;-61
2023/12/10 03:43:46;;;;;;;46.28;10.63;;;10.50;99.90;;;;;;5074197;28;20490;-61
2023/12/10 03:46:11;;;;;;;42.40;10.23;;;10.40;99.90;;;;;;5074036;28;20054;-61
2023/12/10 03:48:37;;;;;;;39.30;9.95;;;10.40;99.90;;;;;;5073535;28;20086;-61
2023/12/10 03:51:03;;;;;;;45.15;10.70;;;10.40;99.90;;;;;;5074941;28;20021;-61
2023/12/10 03:53:28;;;;;;;45.80;10.75;;;10.40;99.90;;;;;;5074160;28;20068;-61
2023/12/10 03:55:54;;;;;;;43.45;10.15;;;10.40;99.90;;;;;;5074128;28;20107;-61
2023/12/10 03:58:20;;;;;;;42.45;10.40;;;10.30;99.90;;;;;;5073644;28;20028;-61
2023/12/10 04:00:46;;;;;;;42.40;10.25;;;10.40;99.90;;;;;;5074005;28;20029;-61
2023/12/10 04:03:11;;;;;;;44.72;10.25;;;10.30;99.90;;;;;;5073353;28;20063;-61
2023/12/10 04:05:37;;;;;;;40.97;9.73;;;10.30;99.90;;;;;;5073742;28;20355;-61
2023/12/10 04:08:03;;;;;;;43.78;10.20;;;10.20;99.90;;;;;;5073660;28;20486;-61
2023/12/10 04:10:29;;;;;;;39.10;10.57;;;10.20;99.90;;;;;;5073934;28;20588;-61
2023/12/10 04:12:54;;;;;;;48.10;10.82;;;10.20;99.90;;;;;;5073528;28;20021;-61
2023/12/10 04:15:20;;;;;;;44.22;11.30;;;10.10;99.90;;;;;;5073314;28;20028;-61
2023/12/10 04:17:46;;;;;;;45.45;10.98;;;10.10;99.90;;;;;;5073568;28;20087;-61
2023/12/10 04:20:12;;;;;;;43.92;10.15;;;10.10;99.90;;;;;;5073281;28;20028;-61
2023/12/10 04:22:37;;;;;;;45.95;10.25;;;10.20;99.90;;;;;;5073269;28;20521;-61
2023/12/10 04:25:04;;;;;;;39.28;10.13;;;10.40;99.90;;;;;;5073334;28;20448;-61
2023/12/10 04:27:29;;;;;;;39.28;9.10;;;10.40;99.90;;;;;;5073183;28;20395;-61
2023/12/10 04:29:55;;;;;;;36.88;8.98;;;10.50;99.90;;;;;;5072928;28;20032;-61
2023/12/10 04:32:21;;;;;;;35.17;9.30;;;10.60;99.90;;;;;;5072428;28;20026;-61
2023/12/10 04:34:46;;;;;;;35.83;9.43;;;10.60;99.90;;;;;;5072668;28;20110;-61
2023/12/10 04:37:12;;;;;;;39.58;9.20;;;10.50;99.90;;;;;;5073128;28;20011;-61
2023/12/10 04:39:38;;;;;;;40.38;10.27;;;10.60;99.90;;;;;;5072871;28;20028;-61
2023/12/10 04:42:04;;;;;;;35.85;9.15;;;10.60;99.90;;;;;;5073275;28;20020;-61
2023/12/10 04:44:30;;;;;;;40.53;9.77;;;10.50;99.90;;;;;;5073007;28;20063;-61
2023/12/10 04:46:55;;;;;;;35.78;8.60;;;10.50;99.90;;;;;;5073268;28;20045;-61
2023/12/10 04:49:21;;;;;;;37.67;9.15;;;10.40;99.90;;;;;;5072656;28;20040;-61
2023/12/10 04:51:47;;;;;;;30.17;8.35;;;10.30;99.90;;;;;;5072724;28;20064;-61
2023/12/10 04:54:13;;;;;;;34.95;9.15;;;10.10;99.90;;;;;;5072479;28;20044;-61
2023/12/10 04:56:39;;;;;;;34.65;9.50;;;9.90;99.90;;;;;;5072557;28;20111;-61
2023/12/10 04:59:05;;;;;;;35.88;9.75;;;9.80;99.90;;;;;;5072791;28;20073;-61
2023/12/10 05:01:30;;;;;;;45.10;9.90;;;9.70;99.90;;;;;;5072095;28;20063;-61
2023/12/10 05:03:56;;;;;;;35.55;9.48;;;9.60;99.90;;;;;;5072435;28;20028;-61
2023/12/10 05:06:21;;;;;;;38.22;9.68;;;9.60;99.90;;;;;;5072593;28;20382;-61
2023/12/10 05:08:48;;;;;;;37.58;9.43;;;9.60;99.90;;;;;;5072170;28;20033;-61
2023/12/10 05:11:13;;;;;;;39.38;8.77;;;9.50;99.90;;;;;;5072667;28;20505;-62
2023/12/10 05:13:39;;;;;;;36.55;9.05;;;9.50;99.90;;;;;;5072330;28;20028;-61
2023/12/10 05:16:05;;;;;;;34.08;9.18;;;9.40;99.90;;;;;;5071964;28;20044;-61
2023/12/10 05:18:31;;;;;;;36.95;9.10;;;9.40;99.90;;;;;;5072507;28;20047;-61
2023/12/10 05:20:56;;;;;;;33.47;8.45;;;9.40;99.90;;;;;;5072352;28;20052;-61
2023/12/10 05:23:22;;;;;;;42.75;9.57;;;9.40;99.90;;;;;;5072256;28;20478;-61
2023/12/10 05:25:48;;;;;;;38.20;9.38;;;9.40;99.90;;;;;;5072339;28;20059;-61
2023/12/10 05:28:13;;;;;;;41.15;9.60;;;9.40;99.90;;;;;;5071191;28;20024;-61
2023/12/10 05:30:39;;;;;;;39.88;9.00;;;9.40;99.90;;;;;;5071704;28;20445;-61
2023/12/10 05:33:05;;;;;;;37.35;9.55;;;9.30;99.90;;;;;;5072284;28;20062;-61
2023/12/10 05:35:30;;;;;;;39.55;10.02;;;9.30;99.90;;;;;;5072087;28;20043;-61
2023/12/10 05:37:56;;;;;;;35.42;9.18;;;9.30;99.90;;;;;;5072038;28;20020;-61
2023/12/10 05:40:25;;;;;;;35.55;9.65;;;9.30;99.90;;;;;;5072530;28;20024;-61
2023/12/10 05:42:52;;;;;;;40.95;9.30;;;9.30;99.90;;;;;;5072175;28;20103;-61
2023/12/10 05:45:18;;;;;;;38.75;9.80;;;9.20;99.90;;;;;;5071737;28;20099;-61
2023/12/10 05:47:43;;;;;;;32.65;9.00;;;9.20;99.90;;;;;;5072081;28;20371;-61
2023/12/10 05:50:09;;;;;;;40.75;9.65;;;9.20;99.90;;;;;;5071843;28;20036;-61
2023/12/10 05:52:35;;;;;;;40.85;9.35;;;9.20;99.90;;;;;;5071988;28;20044;-61
2023/12/10 05:55:00;;;;;;;44.25;9.85;;;9.20;99.90;;;;;;5071773;28;20409;-61
2023/12/10 05:57:27;;;;;;;41.65;10.02;;;9.20;99.90;;;;;;5071868;28;20028;-61
2023/12/10 05:59:53;;;;;;;32.95;8.93;;;9.20;99.90;;;;;;5071631;28;20127;-61
2023/12/10 06:02:23;;;;;;;36.08;8.88;;;9.20;99.90;;;;;;5071692;28;20158;-61
2023/12/10 06:04:49;;;;;;;37.15;9.05;;;9.10;99.90;;;;;;5071685;28;20033;-61
2023/12/10 06:07:14;;;;;;;36.42;9.43;;;9.10;99.90;;;;;;5071964;28;20528;-61
2023/12/10 06:09:40;;;;;;;37.15;9.00;;;9.10;99.90;;;;;;5072048;28;20036;-62
2023/12/10 06:12:06;;;;;;;36.70;8.63;;;9.30;99.90;;;;;;5071690;28;20104;-61
2023/12/10 06:14:32;;;;;;;38.00;9.15;;;9.50;99.90;;;;;;5071299;28;20490;-61
2023/12/10 06:16:57;;;;;;;33.42;8.45;;;9.50;99.90;;;;;;5071766;28;20463;-61
2023/12/10 06:19:23;;;;;;;30.88;8.45;;;9.60;99.90;;;;;;5071924;28;20032;-61
2023/12/10 06:21:49;;;;;;;31.92;8.88;;;9.60;99.90;;;;;;5071733;28;20032;-61
2023/12/10 06:24:14;;;;;;;34.88;9.85;;;9.60;99.90;;;;;;5071749;28;20021;-61
2023/12/10 06:26:40;;;;;;;29.15;8.23;;;9.70;99.90;;;;;;5071301;28;20110;-61
2023/12/10 06:29:06;;;;;;;27.73;8.35;;;9.60;99.90;;;;;;5071855;28;20043;-61
2023/12/10 06:31:31;;;;;;;28.17;8.38;;;9.60;99.90;;;;;;5071658;28;20102;-61
2023/12/10 06:33:57;;;;;;;24.63;7.55;;;9.60;99.90;;;;;;5071496;28;20025;-61
2023/12/10 06:36:23;;;;;;;28.88;8.35;;;9.60;99.90;;;;;;5071868;28;20052;-61
2023/12/10 06:38:48;;;;;;;29.30;8.55;;;9.60;99.90;;;;;;5071688;28;20020;-60
2023/12/10 06:41:14;;;;;;;29.75;8.07;;;9.30;99.90;;;;;;5072233;28;20074;-61
2023/12/10 06:43:40;;;;;;;37.72;8.10;;;9.20;99.90;;;;;;5071184;28;20017;-60
2023/12/10 06:46:06;;;;;;;32.17;8.40;;;9.10;99.90;;;;;;5071517;28;20108;-61
2023/12/10 06:48:33;;;;;;;30.38;9.13;;;9.10;99.90;;;;;;5071082;28;20489;-61
2023/12/10 06:51:02;;;;;;;32.95;9.43;;;9.00;99.90;;;;;;5071715;28;20037;-61
2023/12/10 06:53:28;;;;;;;33.17;9.73;;;9.00;99.90;;;;;;5071033;28;20056;-61
2023/12/10 06:55:54;;;;;;;34.20;9.93;;;9.00;99.90;;;;;;5071443;28;20058;-61
2023/12/10 06:58:20;;;;;;;28.30;8.98;;;8.90;99.90;;;;;;5074726;28;20025;-61
2023/12/10 07:00:45;;;;;;;34.72;9.23;;;8.90;99.90;;;;;;5075291;28;20024;-61
2023/12/10 07:03:11;;;;;;;29.38;9.00;;;8.90;99.90;;;;;;5074593;28;20025;-61
2023/12/10 07:05:37;;;;;;;29.92;9.32;;;8.90;99.90;;;;;;5075224;28;20020;-61
2023/12/10 07:08:03;;;;;;;33.80;10.85;;;8.90;99.90;;;;;;5074580;28;20040;-61
2023/12/10 07:10:28;;;;;;;32.45;9.32;;;8.90;99.90;;;;;;5074418;28;20033;-61
2023/12/10 07:12:54;;;;;;;29.38;7.95;;;8.90;99.90;;;;;;5075151;28;20111;-61
2023/12/10 07:15:20;;;;;;;29.50;7.90;;;8.90;99.90;;;;;;5074617;28;20032;-61
2023/12/10 07:17:46;;;;;;;29.13;8.18;;;8.80;99.90;;;;;;5074538;28;20398;-61
2023/12/10 07:20:12;;;;;;;29.08;8.60;;;8.80;99.90;;;;;;5074930;28;20082;-61
2023/12/10 07:22:37;;;;;;;25.90;7.65;;;8.80;99.90;;;;;;5074469;28;20494;-61
2023/12/10 07:25:06;;;;;;;27.50;8.70;;;8.80;99.90;;;;;;5074210;28;20055;-61
2023/12/10 07:27:32;;;;;;;23.85;7.78;;;8.70;99.90;;;;;;5074389;28;20036;-61
2023/12/10 07:29:58;;;;;;;23.52;7.78;;;8.80;99.90;;;;;;5074235;28;20583;-61
2023/12/10 07:32:24;;;;;;;19.48;7.03;;;8.80;99.90;;;;;;5074487;28;20024;-61
2023/12/10 07:34:50;;;;;;;20.33;6.70;;;8.80;99.90;;;;;;5074734;28;20549;-61
2023/12/10 07:37:16;;;;;;;18.05;6.55;;;8.70;99.90;;;;;;5073960;28;20100;-61
2023/12/10 07:39:42;;;;;;;12.70;5.63;;;8.70;99.90;;;;;;5074017;28;20052;-61
2023/12/10 07:42:07;;;;;;;17.10;5.78;;;8.70;99.90;;;;;;5074079;28;20139;-62
2023/12/10 07:44:33;;;;;;;11.75;5.43;;;8.60;99.90;;;;;;5074156;28;20454;-63
2023/12/10 07:46:59;;;;;;;14.98;6.20;;;8.70;99.90;;;;;;5074463;28;20037;-62
2023/12/10 07:49:25;;;;;;;11.13;6.10;;;8.70;99.90;;;;;;5073583;28;20031;-61
2023/12/10 07:51:51;;;;;;;11.35;6.50;;;8.60;99.90;;;;;;5072301;28;20125;-60
2023/12/10 07:54:17;;;;;;;13.15;6.13;;;8.60;99.90;;;;;;5072180;28;20033;-62
2023/12/10 07:56:43;;;;;;;11.07;5.47;;;8.60;99.90;;;;;;5072836;28;20029;-63
2023/12/10 07:59:09;;;;;;;12.75;6.07;;;8.60;99.90;;;;;;5073254;28;20476;-61
2023/12/10 08:01:34;;;;;;;11.65;5.32;;;8.70;99.90;;;;;;5072813;28;20523;-63
2023/12/10 08:04:00;;;;;;;10.48;6.43;;;9.00;99.90;;;;;;5072613;28;20043;-63
2023/12/10 08:06:26;;;;;;;11.38;5.55;;;9.20;99.90;;;;;;5070035;28;20027;-62
2023/12/10 08:08:52;;;;;;;10.02;5.25;;;9.20;99.90;;;;;;5072229;28;20029;-62
2023/12/10 08:11:18;;;;;;;14.82;5.13;;;9.40;99.90;;;;;;5072510;28;20486;-62
2023/12/10 08:13:44;;;;;;;16.73;5.32;;;9.70;99.90;;;;;;5072516;28;20536;-63
2023/12/10 08:16:10;;;;;;;11.18;5.07;;;9.60;99.90;;;;;;5072529;28;20025;-61
2023/12/10 08:18:36;;;;;;;9.90;5.32;;;9.60;99.90;;;;;;5072746;28;20455;-63
2023/12/10 08:21:02;;;;;;;9.57;4.78;;;9.60;99.90;;;;;;5072718;28;20533;-63
2023/12/10 08:23:28;;;;;;;7.05;3.50;;;9.70;99.90;;;;;;5071729;28;20025;-63
2023/12/10 08:25:54;;;;;;;5.90;3.60;;;9.60;99.90;;;;;;5071657;28;20029;-63
2023/12/10 08:28:20;;;;;;;8.13;3.50;;;9.60;99.90;;;;;;5071429;28;20039;-63
2023/12/10 08:30:46;;;;;;;6.75;3.13;;;9.60;99.90;;;;;;5071775;28;20029;-63
2023/12/10 08:33:12;;;;;;;4.90;2.83;;;9.50;99.90;;;;;;5071602;28;20021;-63
2023/12/10 08:35:37;;;;;;;5.63;3.25;;;9.50;99.90;;;;;;5071329;28;20070;-63
2023/12/10 08:38:03;;;;;;;5.88;2.95;;;9.40;99.90;;;;;;5071441;28;20028;-62
2023/12/10 08:40:29;;;;;;;6.35;3.15;;;9.40;99.90;;;;;;5071409;28;20108;-62
2023/12/10 08:42:55;;;;;;;7.65;3.10;;;9.40;99.90;;;;;;5071876;28;20128;-64
2023/12/10 08:45:22;;;;;;;6.03;3.35;;;9.40;99.90;;;;;;5071499;28;20036;-63
2023/12/10 08:47:47;;;;;;;7.75;3.58;;;9.40;99.90;;;;;;5071289;28;20051;-62
2023/12/10 08:50:13;;;;;;;7.18;3.80;;;9.30;99.90;;;;;;5071124;28;20068;-63
2023/12/10 08:52:39;;;;;;;5.80;3.63;;;9.40;99.90;;;;;;5070473;28;20025;-62
2023/12/10 08:55:05;;;;;;;7.53;4.43;;;9.50;99.90;;;;;;5067193;28;20648;-63
2023/12/10 08:57:31;;;;;;;7.20;4.78;;;9.50;99.90;;;;;;5070882;28;20119;-62
2023/12/10 09:00:00;;;;;;;7.78;5.07;;;9.60;99.90;;;;;;5070992;28;20147;-63
2023/12/10 09:02:26;;;;;;;8.68;5.45;;;9.60;99.90;;;;;;5070917;28;20025;-63
2023/12/10 09:04:51;;;;;;;5.70;5.05;;;9.60;99.90;;;;;;5071148;28;20028;-63
2023/12/10 09:07:17;;;;;;;7.10;4.85;;;9.60;99.90;;;;;;5070467;28;20044;-63
2023/12/10 09:09:43;;;;;;;7.85;5.57;;;9.70;99.90;;;;;;5070961;28;20565;-63
2023/12/10 09:12:09;;;;;;;7.50;5.45;;;9.70;99.90;;;;;;5070930;28;20025;-63
2023/12/10 09:14:36;;;;;;;11.43;6.93;;;9.70;99.90;;;;;;5070767;28;20020;-63
2023/12/10 09:17:02;;;;;;;11.18;6.80;;;9.80;99.90;;;;;;5070979;28;20486;-63
2023/12/10 09:19:29;;;;;;;11.82;7.82;;;9.90;99.90;;;;;;5069861;28;20030;-62
2023/12/10 09:21:55;;;;;;;13.02;7.53;;;9.90;99.90;;;;;;5070142;28;20044;-63
2023/12/10 09:24:22;;;;;;;13.02;7.90;;;9.90;99.90;;;;;;5070201;28;20036;-61
2023/12/10 09:26:48;;;;;;;11.80;7.90;;;10.00;99.90;;;;;;5070109;28;20113;-62
2023/12/10 09:29:13;;;;;;;11.80;7.80;;;10.10;99.90;;;;;;5070681;28;20050;-63
2023/12/10 09:31:39;;;;;;;14.27;8.23;;;10.20;99.90;;;;;;5071460;28;20492;-63
2023/12/10 09:34:05;;;;;;;13.45;8.75;;;10.20;99.90;;;;;;5071535;28;20032;-63
2023/12/10 09:36:31;;;;;;;16.80;8.60;;;10.20;99.90;;;;;;5070980;28;20052;-63
2023/12/10 09:38:56;;;;;;;14.95;9.77;;;10.20;99.90;;;;;;5071223;28;20086;-63
2023/12/10 09:41:22;;;;;;;17.40;10.60;;;10.30;99.90;;;;;;5071017;28;20021;-63
2023/12/10 09:43:47;;;;;;;17.42;10.40;;;10.30;99.90;;;;;;5071464;28;20025;-63
2023/12/10 09:46:14;;;;;;;18.70;10.07;;;10.30;99.90;;;;;;5071097;28;20467;-63
2023/12/10 09:48:41;;;;;;;16.63;10.13;;;10.40;99.90;;;;;;5070809;28;20567;-64
2023/12/10 09:51:07;;;;;;;17.13;10.38;;;10.50;99.90;;;;;;5071144;28;20039;-63
2023/12/10 09:53:33;;;;;;;15.60;10.50;;;10.60;99.90;;;;;;5070962;28;20098;-62
2023/12/10 09:55:59;;;;;;;14.00;10.18;;;10.70;99.90;;;;;;5071010;28;20020;-64
2023/12/10 09:58:25;;;;;;;19.50;11.23;;;10.90;99.90;;;;;;5071013;28;20024;-63
2023/12/10 10:00:51;;;;;;;17.42;10.15;;;11.00;99.90;;;;;;5070933;28;20115;-63
2023/12/10 10:03:18;;;;;;;14.85;10.52;;;11.10;99.90;;;;;;5070867;28;20534;-63
2023/12/10 10:05:43;;;;;;;14.18;10.18;;;11.20;99.90;;;;;;5070640;28;20017;-64
2023/12/10 10:08:09;;;;;;;15.98;10.32;;;11.20;99.90;;;;;;5071317;28;20045;-63
2023/12/10 10:10:35;;;;;;;14.32;9.77;;;11.20;99.90;;;;;;5070845;28;20037;-64
2023/12/10 10:13:00;;;;;;;14.93;9.43;;;11.30;99.90;;;;;;5071319;28;20082;-64
2023/12/10 10:15:28;;;;;;;16.40;10.20;;;11.40;99.90;;;;;;5071418;28;20212;-64
2023/12/10 10:17:55;;;;;;;14.90;10.68;;;11.50;99.90;;;;;;5070857;28;20371;-63
2023/12/10 10:20:22;;;;;;;16.35;11.07;;;11.60;99.90;;;;;;5070540;28;20035;-63
2023/12/10 10:22:48;;;;;;;26.63;23.20;;;11.60;99.90;;;;;;5070853;28;20017;-64
2023/12/10 10:25:14;;;;;;;42.72;34.83;;;11.50;99.90;;;;;;5070646;28;20116;-64
2023/12/10 10:27:40;;;;;;;32.90;28.25;;;11.40;99.90;;;;;;5070914;28;20128;-64
2023/12/10 10:30:06;;;;;;;26.63;22.45;;;11.40;99.90;;;;;;5070754;28;20075;-63
2023/12/10 10:32:33;;;;;;;23.92;17.60;;;11.30;99.90;;;;;;5073704;28;20025;-63
2023/12/10 10:35:03;;;;;;;21.90;15.40;;;11.30;99.90;;;;;;5073282;28;20449;-63
2023/12/10 10:37:28;;;;;;;21.73;14.70;;;11.30;99.90;;;;;;5074556;28;20035;-63
2023/12/10 10:39:55;;;;;;;18.70;14.02;;;11.30;99.90;;;;;;5074464;28;20405;-63
2023/12/10 10:42:20;;;;;;;22.23;15.82;;;11.40;99.90;;;;;;5074489;28;20557;-62
2023/12/10 10:44:46;;;;;;;21.23;16.20;;;11.40;99.90;;;;;;5074505;28;20099;-63
2023/12/10 10:47:12;;;;;;;36.40;16.02;;;11.50;99.90;;;;;;5074205;28;20025;-63
2023/12/10 10:50:00;;;;;;;24.35;14.85;;;11.60;99.90;;;;;;5074210;28;20490;-63
2023/12/10 10:52:32;;;;;;;21.88;14.38;;;11.70;99.90;;;;;;5072919;28;20033;-62
2023/12/10 10:55:00;;;;;;;19.60;13.88;;;11.70;99.90;;;;;;5074292;28;20039;-63
2023/12/10 10:57:34;;;;;;;20.20;15.00;;;11.60;99.90;;;;;;5073858;28;20059;-63
2023/12/10 10:59:59;;;;;;;22.70;14.65;;;11.60;99.90;;;;;;5073559;28;20503;-63
2023/12/10 11:02:25;;;;;;;19.23;13.45;;;11.70;99.90;;;;;;5073503;28;20055;-62
2023/12/10 11:04:51;;;;;;;21.33;12.65;;;11.70;99.90;;;;;;5073954;28;20413;-63
2023/12/10 11:07:21;;;;;;;16.17;10.80;;;11.80;99.90;;;;;;5074141;28;20494;-63
2023/12/10 11:09:57;;;;;;;16.20;11.05;;;11.90;99.90;;;;;;5073699;28;20033;-62
2023/12/10 11:12:42;;;;;;;19.17;11.05;;;12.00;99.90;;;;;;5072472;28;20024;-61
2023/12/10 11:15:13;;;;;;;16.13;10.52;;;12.00;99.90;;;;;;5073960;28;20037;-62
2023/12/10 11:17:54;;;;;;;14.07;9.88;;;12.10;99.90;;;;;;5073264;28;20074;-63
2023/12/10 11:20:40;;;;;;;15.63;9.18;;;12.20;99.90;;;;;;5073602;28;20074;-63
2023/12/10 11:23:13;;;;;;;16.42;9.35;;;12.30;99.90;;;;;;5073896;28;20036;-62
2023/12/10 11:25:40;;;;;;;15.73;9.25;;;12.30;99.90;;;;;;5073535;28;20537;-63
2023/12/10 11:28:13;;;;;;;13.40;9.02;;;12.40;99.90;;;;;;5073652;28;20498;-62
2023/12/10 11:30:39;;;;;;;17.20;9.23;;;12.40;99.90;;;;;;5073052;28;20043;-63
2023/12/10 11:33:07;;;;;;;16.13;10.30;;;12.50;99.90;;;;;;5073109;28;20016;-63
2023/12/10 11:35:33;;;;;;;18.55;9.73;;;12.50;99.90;;;;;;5073727;28;20111;-63
2023/12/10 11:37:59;;;;;;;14.98;9.90;;;12.50;99.90;;;;;;5073590;28;20051;-62
2023/12/10 11:40:25;;;;;;;15.35;9.68;;;12.50;99.90;;;;;;5073635;28;20455;-63
2023/12/10 11:42:51;;;;;;;15.30;9.20;;;12.60;99.90;;;;;;5072854;28;20032;-62
2023/12/10 11:45:17;;;;;;;15.90;9.82;;;12.70;99.90;;;;;;5073136;28;20046;-63
2023/12/10 11:47:43;;;;;;;14.55;9.20;;;12.80;99.90;;;;;;5072911;28;20087;-63
2023/12/10 11:50:10;;;;;;;18.25;9.90;;;12.90;99.90;;;;;;5073010;28;20042;-64
2023/12/10 11:52:36;;;;;;;17.00;9.80;;;13.30;99.90;;;;;;5073121;28;20048;-64
2023/12/10 11:55:03;;;;;;;15.93;9.40;;;13.40;99.90;;;;;;5073056;28;20438;-64
2023/12/10 11:57:29;;;;;;;13.43;8.38;;;13.50;99.90;;;;;;5072969;28;20029;-64
2023/12/10 11:59:56;;;;;;;13.30;8.48;;;13.50;99.90;;;;;;5073023;28;20056;-64
2023/12/10 12:02:23;;;;;;;14.32;9.00;;;13.50;99.90;;;;;;5071373;28;20091;-63
2023/12/10 12:04:52;;;;;;;12.88;7.82;;;13.60;99.90;;;;;;5071821;28;20034;-64
2023/12/10 12:07:28;;;;;;;11.70;7.65;;;13.70;99.90;;;;;;5072084;28;20568;-65
2023/12/10 12:09:54;;;;;;;13.88;7.35;;;13.70;99.90;;;;;;5071785;28;20040;-64
2023/12/10 12:12:23;;;;;;;12.40;7.20;;;13.80;99.90;;;;;;5072423;28;20021;-65
2023/12/10 12:14:51;;;;;;;12.15;6.68;;;13.80;99.90;;;;;;5072527;28;20094;-65
2023/12/10 12:17:19;;;;;;;11.70;6.70;;;13.70;99.90;;;;;;5071594;28;20074;-65
2023/12/10 12:19:45;;;;;;;10.40;6.30;;;13.70;99.90;;;;;;5072201;28;20035;-65
2023/12/10 12:22:11;;;;;;;12.52;6.95;;;13.70;99.90;;;;;;5072192;28;20490;-64
2023/12/10 12:24:43;;;;;;;11.43;6.20;;;13.60;99.90;;;;;;5071136;28;20115;-65
2023/12/10 12:27:10;;;;;;;12.82;6.75;;;13.60;99.90;;;;;;5072253;28;20028;-65
2023/12/10 12:29:36;;;;;;;13.05;6.63;;;13.60;99.90;;;;;;5071943;28;20043;-65
2023/12/10 12:32:03;;;;;;;15.27;7.47;;;13.60;99.90;;;;;;5072447;28;20020;-65